sensor_id;sensor_type;location;lat;lon;timestamp;pressure;altitude;pressure_sealevel;temperature;humidity
65716;BME280;63484;52.054;8.518;2023-01-27T00:02:05;101416.47;;;2.97;99.42
65716;BME280;63484;52.054;8.518;2023-01-27T00:07:08;101418.84;;;3.07;97.56
65716;BME280;63484;52.054;8.518;2023-01-27T00:12:17;101414.47;;;3.11;97.25
65716;BME280;63484;52.054;8.518;2023-01-27T00:17:37;101420.50;;;3.10;96.73
65716;BME280;63484;52.054;8.518;2023-01-27T00:22:39;101409.16;;;3.15;95.73
65716;BME280;63484;52.054;8.518;2023-01-27T00:27:59;101410.84;;;3.19;95.64
65716;BME280;63484;52.054;8.518;2023-01-27T00:33:05;101409.03;;;3.24;94.92
65716;BME280;63484;52.054;8.518;2023-01-27T00:38:26;101409.03;;;3.24;95.28
65716;BME280;63484;52.054;8.518;2023-01-27T00:43:28;101420.41;;;3.17;96.36
65716;BME280;63484;52.054;8.518;2023-01-27T00:48:29;101413.47;;;3.18;95.69
65716;BME280;63484;52.054;8.518;2023-01-27T00:53:32;101405.75;;;3.13;95.97
65716;BME280;63484;52.054;8.518;2023-01-27T00:58:34;101406.50;;;3.18;95.54
65716;BME280;63484;52.054;8.518;2023-01-27T01:03:36;101417.63;;;3.26;95.50
65716;BME280;63484;52.054;8.518;2023-01-27T01:08:39;101412.41;;;3.26;95.59
65716;BME280;63484;52.054;8.518;2023-01-27T01:13:43;101416.06;;;3.16;96.43
65716;BME280;63484;52.054;8.518;2023-01-27T01:18:45;101416.94;;;3.17;96.90
65716;BME280;63484;52.054;8.518;2023-01-27T01:23:48;101416.88;;;3.20;96.64
65716;BME280;63484;52.054;8.518;2023-01-27T01:28:49;101418.59;;;3.21;96.66
65716;BME280;63484;52.054;8.518;2023-01-27T01:33:51;101433.22;;;3.25;96.39
65716;BME280;63484;52.054;8.518;2023-01-27T01:38:54;101431.69;;;3.15;97.36
65716;BME280;63484;52.054;8.518;2023-01-27T01:43:57;101419.59;;;3.14;98.41
65716;BME280;63484;52.054;8.518;2023-01-27T01:49:00;101424.78;;;3.14;98.57
65716;BME280;63484;52.054;8.518;2023-01-27T01:54:07;101427.31;;;3.17;98.97
65716;BME280;63484;52.054;8.518;2023-01-27T01:59:12;101423.13;;;3.11;99.13
65716;BME280;63484;52.054;8.518;2023-01-27T02:04:18;101418.81;;;3.09;99.97
65716;BME280;63484;52.054;8.518;2023-01-27T02:09:25;101423.16;;;3.08;100.00
65716;BME280;63484;52.054;8.518;2023-01-27T02:14:27;101427.34;;;3.15;100.00
65716;BME280;63484;52.054;8.518;2023-01-27T02:19:36;101422.00;;;3.23;100.00
65716;BME280;63484;52.054;8.518;2023-01-27T02:24:46;101419.59;;;3.14;100.00
65716;BME280;63484;52.054;8.518;2023-01-27T02:29:51;101417.91;;;3.11;100.00
65716;BME280;63484;52.054;8.518;2023-01-27T02:34:54;101415.16;;;3.19;100.00
65716;BME280;63484;52.054;8.518;2023-01-27T02:39:57;101423.81;;;3.21;100.00
65716;BME280;63484;52.054;8.518;2023-01-27T02:45:03;101417.63;;;3.26;100.00
65716;BME280;63484;52.054;8.518;2023-01-27T02:50:06;101419.41;;;3.23;100.00
65716;BME280;63484;52.054;8.518;2023-01-27T02:55:09;101427.91;;;3.31;100.00
65716;BME280;63484;52.054;8.518;2023-01-27T03:00:12;101426.09;;;3.36;100.00
65716;BME280;63484;52.054;8.518;2023-01-27T03:05:14;101433.88;;;3.36;100.00
65716;BME280;63484;52.054;8.518;2023-01-27T03:10:15;101432.28;;;3.30;100.00
65716;BME280;63484;52.054;8.518;2023-01-27T03:15:18;101436.47;;;3.36;100.00
65716;BME280;63484;52.054;8.518;2023-01-27T03:20:38;101438.22;;;3.37;100.00
65716;BME280;63484;52.054;8.518;2023-01-27T03:25:40;101433.81;;;3.40;100.00
65716;BME280;63484;52.054;8.518;2023-01-27T03:30:44;101445.00;;;3.45;100.00
65716;BME280;63484;52.054;8.518;2023-01-27T03:35:53;101436.31;;;3.45;100.00
65716;BME280;63484;52.054;8.518;2023-01-27T03:41:19;101437.19;;;3.44;100.00
65716;BME280;63484;52.054;8.518;2023-01-27T03:46:40;101451.75;;;3.52;100.00
65716;BME280;63484;52.054;8.518;2023-01-27T03:51:41;101444.13;;;3.45;100.00
65716;BME280;63484;52.054;8.518;2023-01-27T03:56:42;101450.97;;;3.49;100.00
65716;BME280;63484;52.054;8.518;2023-01-27T04:01:46;101462.31;;;3.45;100.00
65716;BME280;63484;52.054;8.518;2023-01-27T04:06:48;101453.69;;;3.43;100.00
65716;BME280;63484;52.054;8.518;2023-01-27T04:11:54;101450.97;;;3.49;100.00
65716;BME280;63484;52.054;8.518;2023-01-27T04:16:58;101458.72;;;3.50;100.00
65716;BME280;63484;52.054;8.518;2023-01-27T04:22:01;101459.31;;;3.66;100.00
65716;BME280;63484;52.054;8.518;2023-01-27T04:27:05;101468.16;;;3.56;100.00
65716;BME280;63484;52.054;8.518;2023-01-27T04:32:10;101472.44;;;3.58;100.00
65716;BME280;63484;52.054;8.518;2023-01-27T04:37:12;101460.28;;;3.59;100.00
65716;BME280;63484;52.054;8.518;2023-01-27T04:42:14;101469.81;;;3.60;100.00
65716;BME280;63484;52.054;8.518;2023-01-27T04:47:16;101478.50;;;3.59;100.00
65716;BME280;63484;52.054;8.518;2023-01-27T04:52:18;101485.50;;;3.54;100.00
65716;BME280;63484;52.054;8.518;2023-01-27T04:57:22;101486.34;;;3.56;100.00
65716;BME280;63484;52.054;8.518;2023-01-27T05:02:24;101486.34;;;3.56;100.00
65716;BME280;63484;52.054;8.518;2023-01-27T05:07:26;101494.19;;;3.54;100.00
65716;BME280;63484;52.054;8.518;2023-01-27T05:12:27;101494.13;;;3.57;100.00
65716;BME280;63484;52.054;8.518;2023-01-27T05:17:31;101503.63;;;3.58;100.00
65716;BME280;63484;52.054;8.518;2023-01-27T05:22:33;101492.31;;;3.61;100.00
65716;BME280;63484;52.054;8.518;2023-01-27T05:27:35;101499.97;;;3.68;100.00
65716;BME280;63484;52.054;8.518;2023-01-27T05:32:37;101492.06;;;3.73;100.00
65716;BME280;63484;52.054;8.518;2023-01-27T05:37:39;101499.94;;;3.70;100.00
65716;BME280;63484;52.054;8.518;2023-01-27T05:42:40;101517.28;;;3.71;100.00
65716;BME280;63484;52.054;8.518;2023-01-27T05:47:47;101504.06;;;3.80;100.00
65716;BME280;63484;52.054;8.518;2023-01-27T05:52:48;101511.81;;;3.83;100.00
65716;BME280;63484;52.054;8.518;2023-01-27T05:57:50;101510.09;;;3.83;100.00
65716;BME280;63484;52.054;8.518;2023-01-27T06:02:53;101522.91;;;3.91;100.00
65716;BME280;63484;52.054;8.518;2023-01-27T06:07:54;101526.44;;;3.88;100.00
65716;BME280;63484;52.054;8.518;2023-01-27T06:12:56;101519.44;;;3.92;100.00
65716;BME280;63484;52.054;8.518;2023-01-27T06:17:58;101530.72;;;3.91;100.00
65716;BME280;63484;52.054;8.518;2023-01-27T06:23:00;101538.56;;;3.89;100.00
65716;BME280;63484;52.054;8.518;2023-01-27T06:28:02;101552.34;;;3.94;100.00
65716;BME280;63484;52.054;8.518;2023-01-27T06:33:05;101539.47;;;3.88;100.00
65716;BME280;63484;52.054;8.518;2023-01-27T06:38:09;101549.75;;;3.93;100.00
65716;BME280;63484;52.054;8.518;2023-01-27T06:43:14;101551.50;;;3.92;100.00
65716;BME280;63484;52.054;8.518;2023-01-27T06:48:17;101548.84;;;3.97;100.00
65716;BME280;63484;52.054;8.518;2023-01-27T06:53:19;101547.19;;;3.91;100.00
65716;BME280;63484;52.054;8.518;2023-01-27T06:58:20;101561.88;;;3.95;100.00
65716;BME280;63484;52.054;8.518;2023-01-27T07:03:23;101557.53;;;3.94;100.00
65716;BME280;63484;52.054;8.518;2023-01-27T07:08:25;101566.25;;;3.93;100.00
65716;BME280;63484;52.054;8.518;2023-01-27T07:13:26;101566.16;;;3.96;100.00
65716;BME280;63484;52.054;8.518;2023-01-27T07:18:29;101581.03;;;3.90;100.00
65716;BME280;63484;52.054;8.518;2023-01-27T07:23:31;101572.25;;;3.97;100.00
65716;BME280;63484;52.054;8.518;2023-01-27T07:28:32;101588.72;;;3.96;100.00
65716;BME280;63484;52.054;8.518;2023-01-27T07:33:35;101591.28;;;3.97;100.00
65716;BME280;63484;52.054;8.518;2023-01-27T07:38:37;101590.38;;;4.00;100.00
65716;BME280;63484;52.054;8.518;2023-01-27T07:43:38;101592.03;;;4.04;100.00
65716;BME280;63484;52.054;8.518;2023-01-27T07:48:43;101600.78;;;4.00;100.00
65716;BME280;63484;52.054;8.518;2023-01-27T07:53:44;101603.16;;;4.10;100.00
65716;BME280;63484;52.054;8.518;2023-01-27T07:58:45;101607.63;;;4.04;100.00
65716;BME280;63484;52.054;8.518;2023-01-27T08:03:48;101624.88;;;4.09;100.00
65716;BME280;63484;52.054;8.518;2023-01-27T08:08:50;101626.50;;;4.15;100.00
65716;BME280;63484;52.054;8.518;2023-01-27T08:13:51;101634.31;;;4.16;100.00
65716;BME280;63484;52.054;8.518;2023-01-27T08:18:54;101627.28;;;4.20;100.00
65716;BME280;63484;52.054;8.518;2023-01-27T08:23:56;101638.56;;;4.19;100.00
65716;BME280;63484;52.054;8.518;2023-01-27T08:28:57;101632.59;;;4.14;100.00
65716;BME280;63484;52.054;8.518;2023-01-27T08:34:00;101641.25;;;4.16;100.00
65716;BME280;63484;52.054;8.518;2023-01-27T08:39:02;101645.59;;;4.14;100.00
65716;BME280;63484;52.054;8.518;2023-01-27T08:44:03;101653.50;;;4.09;100.00
65716;BME280;63484;52.054;8.518;2023-01-27T08:49:06;101660.63;;;4.00;100.00
65716;BME280;63484;52.054;8.518;2023-01-27T08:54:08;101669.22;;;4.03;100.00
65716;BME280;63484;52.054;8.518;2023-01-27T08:59:09;101683.97;;;4.03;100.00
65716;BME280;63484;52.054;8.518;2023-01-27T09:04:12;101686.44;;;4.10;100.00
65716;BME280;63484;52.054;8.518;2023-01-27T09:09:14;101686.69;;;3.97;100.00
65716;BME280;63484;52.054;8.518;2023-01-27T09:14:15;101699.56;;;4.04;100.00
65716;BME280;63484;52.054;8.518;2023-01-27T09:19:19;101712.66;;;4.00;100.00
65716;BME280;63484;52.054;8.518;2023-01-27T09:24:21;101718.03;;;3.88;100.00
65716;BME280;63484;52.054;8.518;2023-01-27T09:29:22;101715.34;;;3.94;100.00
65716;BME280;63484;52.054;8.518;2023-01-27T09:34:25;101708.53;;;3.87;100.00
65716;BME280;63484;52.054;8.518;2023-01-27T09:39:28;101715.34;;;3.94;100.00
65716;BME280;63484;52.054;8.518;2023-01-27T09:44:58;101717.94;;;3.94;99.64
65716;BME280;63484;52.054;8.518;2023-01-27T09:50:25;101711.94;;;3.92;100.00
65716;BME280;63484;52.054;8.518;2023-01-27T09:55:38;101723.13;;;3.94;100.00
65716;BME280;63484;52.054;8.518;2023-01-27T10:00:53;101729.06;;;4.03;98.98
65716;BME280;63484;52.054;8.518;2023-01-27T10:06:21;101726.50;;;4.02;99.05
65716;BME280;63484;52.054;8.518;2023-01-27T10:11:35;101714.38;;;3.99;97.84
65716;BME280;63484;52.054;8.518;2023-01-27T10:16:54;101721.22;;;4.06;97.01
65716;BME280;63484;52.054;8.518;2023-01-27T10:22:08;101716.84;;;4.07;94.87
65716;BME280;63484;52.054;8.518;2023-01-27T10:27:15;101722.75;;;4.18;94.74
65716;BME280;63484;52.054;8.518;2023-01-27T10:32:24;101719.34;;;4.14;93.33
65716;BME280;63484;52.054;8.518;2023-01-27T10:37:33;101720.22;;;4.12;94.53
65716;BME280;63484;52.054;8.518;2023-01-27T10:42:43;101728.88;;;4.14;93.55
65716;BME280;63484;52.054;8.518;2023-01-27T10:47:55;101729.47;;;4.30;94.32
65716;BME280;63484;52.054;8.518;2023-01-27T10:53:07;101739.06;;;4.26;91.35
65716;BME280;63484;52.054;8.518;2023-01-27T10:58:14;101725.06;;;4.33;91.50
65716;BME280;63484;52.054;8.518;2023-01-27T11:03:22;101727.31;;;4.51;89.37
65716;BME280;63484;52.054;8.518;2023-01-27T11:08:29;101722.03;;;4.54;89.12
65716;BME280;63484;52.054;8.518;2023-01-27T11:13:32;101716.94;;;4.50;88.14
65716;BME280;63484;52.054;8.518;2023-01-27T11:18:36;101726.25;;;4.61;89.36
65716;BME280;63484;52.054;8.518;2023-01-27T11:23:42;101722.88;;;4.56;88.48
65716;BME280;63484;52.054;8.518;2023-01-27T11:28:50;101722.72;;;4.65;87.69
65716;BME280;63484;52.054;8.518;2023-01-27T11:34:00;101710.06;;;4.88;85.93
65716;BME280;63484;52.054;8.518;2023-01-27T11:39:05;101721.13;;;4.99;85.97
65716;BME280;63484;52.054;8.518;2023-01-27T11:44:11;101716.66;;;5.07;86.69
65716;BME280;63484;52.054;8.518;2023-01-27T11:49:21;101707.31;;;4.97;86.55
65716;BME280;63484;52.054;8.518;2023-01-27T11:54:28;101708.31;;;4.90;86.73
65716;BME280;63484;52.054;8.518;2023-01-27T11:59:36;101701.25;;;4.95;88.26
65716;BME280;63484;52.054;8.518;2023-01-27T12:04:45;101705.50;;;5.01;85.72
65716;BME280;63484;52.054;8.518;2023-01-27T12:09:52;101704.78;;;4.91;87.42
65716;BME280;63484;52.054;8.518;2023-01-27T12:14:55;101707.81;;;4.73;86.72
65716;BME280;63484;52.054;8.518;2023-01-27T12:20:00;101713.16;;;4.66;88.59
65716;BME280;63484;52.054;8.518;2023-01-27T12:25:06;101696.97;;;4.93;89.00
65716;BME280;63484;52.054;8.518;2023-01-27T12:30:19;101696.84;;;4.99;87.24
65716;BME280;63484;52.054;8.518;2023-01-27T12:35:23;101692.16;;;5.14;87.47
65716;BME280;63484;52.054;8.518;2023-01-27T12:40:28;101683.78;;;5.00;87.56
65716;BME280;63484;52.054;8.518;2023-01-27T12:45:30;101686.59;;;4.90;88.43
65716;BME280;63484;52.054;8.518;2023-01-27T12:50:35;101682.03;;;4.99;87.57
65716;BME280;63484;52.054;8.518;2023-01-27T12:55:41;101678.00;;;4.86;88.29
65716;BME280;63484;52.054;8.518;2023-01-27T13:00:44;101680.78;;;4.77;88.03
65716;BME280;63484;52.054;8.518;2023-01-27T13:05:47;101677.38;;;4.74;89.21
65716;BME280;63484;52.054;8.518;2023-01-27T13:10:56;101670.38;;;4.77;90.16
65716;BME280;63484;52.054;8.518;2023-01-27T13:16:03;101672.06;;;4.80;88.05
65716;BME280;63484;52.054;8.518;2023-01-27T13:21:12;101673.69;;;4.85;87.89
65716;BME280;63484;52.054;8.518;2023-01-27T13:26:18;101677.25;;;4.81;87.57
65716;BME280;63484;52.054;8.518;2023-01-27T13:31:33;101687.75;;;4.77;88.34
65716;BME280;63484;52.054;8.518;2023-01-27T13:36:36;101685.63;;;4.53;88.60
65716;BME280;63484;52.054;8.518;2023-01-27T13:41:46;101692.06;;;4.35;89.17
65716;BME280;63484;52.054;8.518;2023-01-27T13:46:52;101694.59;;;4.38;89.32
65716;BME280;63484;52.054;8.518;2023-01-27T13:51:55;101699.78;;;4.38;89.21
65716;BME280;63484;52.054;8.518;2023-01-27T13:57:08;101700.75;;;4.34;89.03
65716;BME280;63484;52.054;8.518;2023-01-27T14:02:35;101709.16;;;4.48;89.06
65716;BME280;63484;52.054;8.518;2023-01-27T14:07:46;101706.81;;;4.35;88.61
65716;BME280;63484;52.054;8.518;2023-01-27T14:13:10;101709.50;;;4.30;89.27
65716;BME280;63484;52.054;8.518;2023-01-27T14:18:19;101713.84;;;4.28;89.31
65716;BME280;63484;52.054;8.518;2023-01-27T14:23:32;101708.88;;;4.17;89.26
65716;BME280;63484;52.054;8.518;2023-01-27T14:28:52;101703.84;;;4.08;88.83
65716;BME280;63484;52.054;8.518;2023-01-27T14:34:01;101731.44;;;4.15;89.23
65716;BME280;63484;52.054;8.518;2023-01-27T14:39:13;101723.88;;;4.00;89.46
65716;BME280;63484;52.054;8.518;2023-01-27T14:44:24;101717.75;;;4.06;89.53
65716;BME280;63484;52.054;8.518;2023-01-27T14:49:42;101722.94;;;4.06;88.62
65716;BME280;63484;52.054;8.518;2023-01-27T14:54:57;101727.25;;;4.07;89.23
65716;BME280;63484;52.054;8.518;2023-01-27T15:00:14;101736.91;;;4.00;89.21
65716;BME280;63484;52.054;8.518;2023-01-27T15:05:22;101735.16;;;4.01;89.35
65716;BME280;63484;52.054;8.518;2023-01-27T15:10:26;101743.91;;;3.97;89.23
65716;BME280;63484;52.054;8.518;2023-01-27T15:15:36;101756.88;;;4.00;88.89
65716;BME280;63484;52.054;8.518;2023-01-27T15:20:57;101762.19;;;3.91;88.74
65716;BME280;63484;52.054;8.518;2023-01-27T15:26:04;101759.69;;;3.86;89.06
65716;BME280;63484;52.054;8.518;2023-01-27T15:31:21;101767.56;;;3.82;87.97
65716;BME280;63484;52.054;8.518;2023-01-27T15:36:34;101778.03;;;3.77;87.03
65716;BME280;63484;52.054;8.518;2023-01-27T15:41:37;101785.94;;;3.70;87.72
65716;BME280;63484;52.054;8.518;2023-01-27T15:46:51;101790.34;;;3.65;87.58
65716;BME280;63484;52.054;8.518;2023-01-27T15:51:55;101789.53;;;3.63;87.39
65716;BME280;63484;52.054;8.518;2023-01-27T15:57:12;101792.91;;;3.69;87.06
65716;BME280;63484;52.054;8.518;2023-01-27T16:02:25;101796.47;;;3.61;86.75
65716;BME280;63484;52.054;8.518;2023-01-27T16:07:30;101801.66;;;3.62;86.61
65716;BME280;63484;52.054;8.518;2023-01-27T16:12:39;101799.22;;;3.50;86.34
65716;BME280;63484;52.054;8.518;2023-01-27T16:23:23;101810.13;;;3.75;84.62
65716;BME280;63484;52.054;8.518;2023-01-27T16:28:29;101813.75;;;3.65;85.03
65716;BME280;63484;52.054;8.518;2023-01-27T16:33:37;101813.78;;;3.62;84.68
65716;BME280;63484;52.054;8.518;2023-01-27T16:38:40;101828.56;;;3.60;85.34
65716;BME280;63484;52.054;8.518;2023-01-27T16:43:48;101819.97;;;3.55;85.74
65716;BME280;63484;52.054;8.518;2023-01-27T16:48:52;101834.56;;;3.63;84.99
65716;BME280;63484;52.054;8.518;2023-01-27T16:53:56;101817.34;;;3.56;84.43
65716;BME280;63484;52.054;8.518;2023-01-27T16:59:00;101814.78;;;3.52;84.83
65716;BME280;63484;52.054;8.518;2023-01-27T17:04:05;101816.47;;;3.56;84.47
65716;BME280;63484;52.054;8.518;2023-01-27T17:09:19;101828.63;;;3.54;83.35
65716;BME280;63484;52.054;8.518;2023-01-27T17:14:27;101831.28;;;3.51;84.01
65716;BME280;63484;52.054;8.518;2023-01-27T17:19:32;101831.31;;;3.48;84.50
65716;BME280;63484;52.054;8.518;2023-01-27T17:24:36;101833.03;;;3.49;83.84
65716;BME280;63484;52.054;8.518;2023-01-27T17:29:40;101833.09;;;3.44;83.94
65716;BME280;63484;52.054;8.518;2023-01-27T17:34:44;101835.84;;;3.31;83.37
65716;BME280;63484;52.054;8.518;2023-01-27T17:39:46;101837.63;;;3.29;84.66
65716;BME280;63484;52.054;8.518;2023-01-27T17:44:52;101848.13;;;3.20;84.89
65716;BME280;63484;52.054;8.518;2023-01-27T17:49:54;101843.84;;;3.16;87.33
65716;BME280;63484;52.054;8.518;2023-01-27T17:54:56;101857.66;;;3.19;88.88
65716;BME280;63484;52.054;8.518;2023-01-27T18:00:00;101856.84;;;3.16;89.63
65716;BME280;63484;52.054;8.518;2023-01-27T18:05:17;101862.88;;;3.19;89.06
65716;BME280;63484;52.054;8.518;2023-01-27T18:10:23;101870.69;;;3.15;88.33
65716;BME280;63484;52.054;8.518;2023-01-27T18:15:37;101877.63;;;3.16;88.15
65716;BME280;63484;52.054;8.518;2023-01-27T18:20:41;101882.00;;;3.11;85.83
65716;BME280;63484;52.054;8.518;2023-01-27T18:25:43;101879.44;;;3.09;83.89
65716;BME280;63484;52.054;8.518;2023-01-27T18:30:49;101890.66;;;3.11;82.27
65716;BME280;63484;52.054;8.518;2023-01-27T18:35:57;101888.94;;;3.09;80.61
65716;BME280;63484;52.054;8.518;2023-01-27T18:41:09;101895.03;;;3.08;79.47
65716;BME280;63484;52.054;8.518;2023-01-27T18:46:10;101905.38;;;3.11;78.47
65716;BME280;63484;52.054;8.518;2023-01-27T18:51:14;101897.69;;;2.99;77.78
65716;BME280;63484;52.054;8.518;2023-01-27T18:56:16;101905.50;;;2.99;76.36
65716;BME280;63484;52.054;8.518;2023-01-27T19:01:19;101899.53;;;2.89;77.30
65716;BME280;63484;52.054;8.518;2023-01-27T19:06:23;101907.34;;;2.86;77.55
65716;BME280;63484;52.054;8.518;2023-01-27T19:11:25;101911.69;;;2.82;78.13
65716;BME280;63484;52.054;8.518;2023-01-27T19:16:27;101917.66;;;2.92;77.13
65716;BME280;63484;52.054;8.518;2023-01-27T19:21:33;101916.91;;;2.81;78.51
65716;BME280;63484;52.054;8.518;2023-01-27T19:26:35;101907.31;;;2.89;78.64
65716;BME280;63484;52.054;8.518;2023-01-27T19:31:36;101912.56;;;2.84;78.66
65716;BME280;63484;52.054;8.518;2023-01-27T19:36:42;101906.47;;;2.85;79.54
65716;BME280;63484;52.054;8.518;2023-01-27T19:41:44;101909.88;;;2.92;79.57
65716;BME280;63484;52.054;8.518;2023-01-27T19:46:46;101914.31;;;2.82;79.14
65716;BME280;63484;52.054;8.518;2023-01-27T19:51:50;101924.69;;;2.82;79.73
65716;BME280;63484;52.054;8.518;2023-01-27T19:56:52;101927.28;;;2.82;79.27
65716;BME280;63484;52.054;8.518;2023-01-27T20:01:53;101928.22;;;2.75;79.41
65716;BME280;63484;52.054;8.518;2023-01-27T20:06:57;101927.41;;;2.72;79.74
65716;BME280;63484;52.054;8.518;2023-01-27T20:11:58;101929.91;;;2.81;79.67
65716;BME280;63484;52.054;8.518;2023-01-27T20:17:01;101935.22;;;2.69;79.93
65716;BME280;63484;52.054;8.518;2023-01-27T20:22:09;101942.97;;;2.67;79.32
65716;BME280;63484;52.054;8.518;2023-01-27T20:27:12;101942.13;;;2.68;78.52
65716;BME280;63484;52.054;8.518;2023-01-27T20:32:16;101942.13;;;2.68;78.92
65716;BME280;63484;52.054;8.518;2023-01-27T20:37:18;101952.50;;;2.68;78.54
65716;BME280;63484;52.054;8.518;2023-01-27T20:42:20;101942.13;;;2.68;78.40
65716;BME280;63484;52.054;8.518;2023-01-27T20:47:22;101948.25;;;2.60;77.45
65716;BME280;63484;52.054;8.518;2023-01-27T20:52:25;101944.78;;;2.58;77.86
65716;BME280;63484;52.054;8.518;2023-01-27T20:57:26;101948.28;;;2.55;77.22
65716;BME280;63484;52.054;8.518;2023-01-27T21:02:30;101944.84;;;2.50;77.22
65716;BME280;63484;52.054;8.518;2023-01-27T21:07:33;101956.09;;;2.54;77.64
65716;BME280;63484;52.054;8.518;2023-01-27T21:12:34;101956.09;;;2.54;76.67
65716;BME280;63484;52.054;8.518;2023-01-27T21:17:36;101959.59;;;2.45;77.87
65716;BME280;63484;52.054;8.518;2023-01-27T21:22:38;101961.31;;;2.43;77.73
65716;BME280;63484;52.054;8.518;2023-01-27T21:27:40;101956.13;;;2.43;77.17
65716;BME280;63484;52.054;8.518;2023-01-27T21:32:42;101957.03;;;2.39;77.78
65716;BME280;63484;52.054;8.518;2023-01-27T21:37:45;101949.19;;;2.47;77.41
65716;BME280;63484;52.054;8.518;2023-01-27T21:42:46;101947.53;;;2.41;77.66
65716;BME280;63484;52.054;8.518;2023-01-27T21:48:05;101944.13;;;2.30;77.62
65716;BME280;63484;52.054;8.518;2023-01-27T21:53:09;101946.69;;;2.36;78.72
65716;BME280;63484;52.054;8.518;2023-01-27T21:58:10;101934.59;;;2.34;76.51
65716;BME280;63484;52.054;8.518;2023-01-27T22:03:12;101939.84;;;2.26;76.89
65716;BME280;63484;52.054;8.518;2023-01-27T22:08:14;101944.16;;;2.26;75.79
65716;BME280;63484;52.054;8.518;2023-01-27T22:13:16;101945.91;;;2.27;75.45
65716;BME280;63484;52.054;8.518;2023-01-27T22:18:17;101946.00;;;2.07;74.43
65716;BME280;63484;52.054;8.518;2023-01-27T22:23:21;101943.41;;;2.03;72.78
65716;BME280;63484;52.054;8.518;2023-01-27T22:28:23;101947.75;;;2.05;72.19
65716;BME280;63484;52.054;8.518;2023-01-27T22:33:26;101949.56;;;1.91;71.04
65716;BME280;63484;52.054;8.518;2023-01-27T22:38:28;101930.47;;;1.98;70.48
65716;BME280;63484;52.054;8.518;2023-01-27T22:43:30;101928.81;;;1.88;70.00
65716;BME280;63484;52.054;8.518;2023-01-27T22:48:31;101920.16;;;1.89;70.36
65716;BME280;63484;52.054;8.518;2023-01-27T22:53:34;101920.28;;;1.68;71.49
65716;BME280;63484;52.054;8.518;2023-01-27T22:58:36;101913.38;;;1.70;72.10
65716;BME280;63484;52.054;8.518;2023-01-27T23:03:37;101915.94;;;1.72;72.58
65716;BME280;63484;52.054;8.518;2023-01-27T23:08:40;101920.25;;;1.71;71.56
65716;BME280;63484;52.054;8.518;2023-01-27T23:13:41;101927.16;;;1.72;72.95
65716;BME280;63484;52.054;8.518;2023-01-27T23:18:43;101938.34;;;1.83;72.45
65716;BME280;63484;52.054;8.518;2023-01-27T23:23:48;101937.53;;;1.69;73.12
65716;BME280;63484;52.054;8.518;2023-01-27T23:28:49;101932.34;;;1.71;72.41
65716;BME280;63484;52.054;8.518;2023-01-27T23:33:51;101941.00;;;1.71;72.60
65716;BME280;63484;52.054;8.518;2023-01-27T23:38:54;101943.59;;;1.68;73.35
65716;BME280;63484;52.054;8.518;2023-01-27T23:43:56;101944.47;;;1.64;73.25
65716;BME280;63484;52.054;8.518;2023-01-27T23:48:57;101943.63;;;1.65;73.16
65716;BME280;63484;52.054;8.518;2023-01-27T23:54:00;101938.44;;;1.65;72.88
65716;BME280;63484;52.054;8.518;2023-01-27T23:59:02;101939.25;;;1.67;73.40
